createdAt,value
2019-04-28T00:01:07.892Z,60.25
2019-04-28T00:06:16.564Z,55.75
2019-04-28T00:11:25.711Z,51.63
2019-04-28T00:16:31.073Z,52.50
2019-04-28T00:21:36.198Z,53.00
2019-04-28T00:26:41.046Z,56.75
2019-04-28T00:31:51.251Z,55.88
2019-04-28T00:37:01.270Z,55.00
2019-04-28T00:42:11.634Z,59.13
2019-04-28T00:47:21.067Z,53.87
2019-04-28T00:52:26.043Z,49.50
2019-04-28T00:57:34.707Z,54.63
2019-04-28T01:02:41.423Z,50.75
2019-04-28T01:07:51.123Z,55.63
2019-04-28T01:12:59.690Z,53.87
2019-04-28T01:18:10.481Z,54.50
2019-04-28T01:23:16.659Z,52.25
2019-04-28T01:28:21.512Z,54.00
2019-04-28T01:33:25.713Z,54.75
2019-04-28T01:38:30.209Z,54.67
2019-04-28T01:43:36.770Z,52.00
2019-04-28T01:48:40.328Z,50.75
2019-04-28T01:53:44.519Z,47.50
2019-04-28T01:58:47.872Z,53.00
2019-04-28T02:03:56.227Z,50.25
2019-04-28T02:09:01.204Z,55.50
2019-04-28T02:14:11.221Z,51.13
2019-04-28T02:19:16.230Z,48.50
2019-04-28T02:24:22.191Z,48.00
2019-04-28T02:29:30.337Z,47.88
2019-04-28T02:34:37.495Z,49.86
2019-04-28T02:39:46.040Z,48.25
2019-04-28T02:44:51.055Z,51.00
2019-04-28T02:49:57.007Z,56.25
2019-04-28T02:55:03.135Z,51.75
2019-04-28T03:00:10.095Z,49.00
2019-04-28T03:05:15.071Z,45.00
2019-04-28T03:10:24.216Z,46.88
2019-04-28T03:15:30.322Z,45.50
2019-04-28T03:20:41.495Z,46.75
2019-04-28T03:25:45.304Z,37.75
2019-04-28T03:30:53.758Z,45.57
2019-04-28T03:36:07.079Z,44.00
2019-04-28T03:41:06.594Z,43.25
2019-04-28T03:46:16.625Z,35.82
2019-04-28T03:51:22.316Z,43.00
2019-04-28T03:56:31.315Z,44.22
2019-04-28T04:01:53.041Z,43.89
2019-04-28T04:06:45.055Z,41.50
2019-04-28T04:11:50.890Z,41.75
2019-04-28T04:17:00.103Z,44.75
2019-04-28T04:22:05.012Z,47.50
2019-04-28T04:27:14.718Z,39.00
2019-04-28T04:32:26.927Z,45.25
2019-04-28T04:37:34.246Z,41.75
2019-04-28T04:42:40.293Z,47.50
2019-04-28T04:47:44.631Z,46.75
2019-04-28T04:52:50.171Z,40.25
2019-04-28T04:57:54.170Z,47.00
2019-04-28T05:03:00.785Z,43.87
2019-04-28T05:08:10.712Z,45.50
2019-04-28T05:13:17.791Z,46.75
2019-04-28T05:18:26.630Z,46.88
2019-04-28T05:23:34.549Z,49.00
2019-04-28T05:28:44.014Z,50.00
2019-04-28T05:33:49.860Z,51.22
2019-04-28T05:38:57.738Z,56.78
2019-04-28T05:44:04.951Z,51.37
2019-04-28T05:49:10.275Z,50.00
2019-04-28T05:54:33.047Z,47.38
2019-04-28T05:59:40.209Z,49.50
2019-04-28T06:04:49.438Z,51.75
2019-04-28T06:09:53.823Z,49.00
2019-04-28T06:15:00.465Z,55.88
2019-04-28T06:20:05.586Z,47.67
2019-04-28T06:25:13.013Z,54.50
2019-04-28T06:30:17.037Z,45.00
2019-04-28T06:35:24.428Z,49.63
2019-04-28T06:40:33.256Z,48.38
2019-04-28T06:45:37.951Z,51.00
2019-04-28T06:50:44.480Z,49.67
2019-04-28T06:55:53.569Z,55.50
2019-04-28T07:00:57.592Z,45.00
2019-04-28T07:06:01.693Z,44.00
2019-04-28T07:11:08.315Z,45.75
2019-04-28T07:16:11.707Z,45.75
2019-04-28T07:21:19.185Z,49.00
2019-04-28T07:26:23.376Z,49.00
2019-04-28T07:31:27.466Z,58.00
2019-04-28T07:36:37.527Z,49.00
2019-04-28T07:41:45.038Z,47.00
2019-04-28T07:46:53.781Z,49.88
2019-04-28T07:52:03.199Z,52.75
2019-04-28T07:57:12.127Z,50.88
2019-04-28T08:02:16.436Z,53.33
2019-04-28T08:07:23.813Z,48.75
2019-04-28T08:12:28.779Z,41.00
2019-04-28T08:17:32.508Z,43.67
2019-04-28T08:22:36.658Z,48.00
2019-04-28T08:27:40.177Z,42.00
2019-04-28T08:32:46.214Z,45.75
2019-04-28T08:37:53.906Z,49.00
2019-04-28T08:43:03.183Z,47.75
2019-04-28T08:48:12.643Z,45.63
2019-04-28T08:53:21.991Z,51.13
2019-04-28T08:58:29.420Z,46.37
2019-04-28T09:03:34.206Z,44.50
2019-04-28T09:08:38.411Z,45.00
2019-04-28T09:13:44.303Z,43.25
2019-04-28T09:18:48.463Z,47.00
2019-04-28T09:23:57.031Z,37.25
2019-04-28T09:29:05.515Z,39.89
2019-04-28T09:34:12.423Z,42.44
2019-04-28T09:39:17.479Z,37.00
2019-04-28T09:44:26.025Z,50.50
2019-04-28T09:49:31.204Z,36.25
2019-04-28T09:54:39.759Z,51.50
2019-04-28T09:59:48.254Z,42.33
2019-04-28T10:04:52.527Z,36.83
2019-04-28T10:09:56.519Z,42.00
2019-04-28T10:15:00.532Z,39.50
2019-04-28T10:20:09.183Z,38.75
2019-04-28T10:25:14.120Z,38.00
2019-04-28T10:30:21.560Z,38.25
2019-04-28T10:35:30.656Z,39.25
2019-04-28T10:40:40.386Z,43.87
2019-04-28T10:45:48.996Z,36.13
2019-04-28T10:50:56.430Z,35.13
2019-04-28T10:56:05.762Z,33.00
2019-04-28T11:01:12.461Z,46.11
2019-04-28T11:06:18.436Z,39.75
2019-04-28T11:11:23.662Z,40.25
2019-04-28T11:16:32.068Z,39.63
2019-04-28T11:21:41.612Z,39.50
2019-04-28T11:26:47.650Z,32.63
2019-04-28T11:31:57.042Z,32.08
2019-04-28T11:37:06.461Z,37.50
2019-04-28T11:42:10.815Z,34.40
2019-04-28T11:47:20.207Z,33.44
2019-04-28T11:52:29.434Z,33.13
2019-04-28T11:57:34.422Z,36.50
2019-04-28T12:02:38.659Z,32.25
2019-04-28T12:07:47.208Z,38.50
2019-04-28T12:12:53.180Z,30.00
2019-04-28T12:18:02.413Z,41.50
2019-04-28T12:23:09.796Z,31.00
2019-04-28T12:28:18.072Z,34.00
2019-04-28T12:33:27.275Z,35.38
2019-04-28T12:38:36.602Z,25.37
2019-04-28T12:43:41.492Z,26.00
2019-04-28T12:48:49.007Z,29.12
2019-04-28T12:53:55.709Z,29.25
2019-04-28T12:58:59.730Z,33.33
2019-04-28T13:04:03.189Z,25.67
2019-04-28T13:09:10.603Z,22.00
2019-04-28T13:14:19.679Z,41.67
2019-04-28T13:19:23.026Z,29.00
2019-04-28T13:24:27.110Z,28.00
2019-04-28T13:29:35.419Z,35.00
2019-04-28T13:34:40.603Z,30.50
2019-04-28T13:39:46.295Z,31.37
2019-04-28T13:44:55.330Z,26.75
2019-04-28T13:49:59.571Z,31.00
2019-04-28T13:55:07.293Z,26.00
2019-04-28T14:00:11.762Z,21.25
2019-04-28T14:05:17.352Z,22.71
2019-04-28T14:10:23.242Z,26.86
2019-04-28T14:15:29.242Z,25.75
2019-04-28T14:20:34.194Z,25.50
2019-04-28T14:25:39.285Z,23.71
2019-04-28T14:30:45.881Z,19.25
2019-04-28T14:35:54.282Z,23.75
2019-04-28T14:41:00.807Z,21.37
2019-04-28T14:46:04.194Z,20.25
2019-04-28T14:51:10.042Z,17.29
2019-04-28T14:56:15.630Z,18.43
2019-04-28T15:01:21.274Z,18.14
2019-04-28T15:06:26.766Z,16.43
2019-04-28T15:11:31.922Z,14.71
2019-04-28T15:16:38.665Z,17.29
2019-04-28T15:21:45.355Z,21.00
2019-04-28T15:26:50.975Z,19.00
2019-04-28T15:31:59.170Z,19.25
2019-04-28T15:37:10.093Z,22.87
2019-04-28T15:42:12.281Z,18.71
2019-04-28T15:47:18.054Z,25.29
2019-04-28T15:52:23.698Z,25.88
2019-04-28T15:57:30.019Z,23.25
2019-04-28T16:02:34.044Z,23.00
2019-04-28T16:07:39.666Z,16.43
2019-04-28T16:12:46.097Z,27.50
2019-04-28T16:17:52.601Z,26.50
2019-04-28T16:23:00.780Z,21.00
2019-04-28T16:28:09.055Z,21.87
2019-04-28T16:33:13.092Z,19.50
2019-04-28T16:38:18.780Z,22.43
2019-04-28T16:43:23.577Z,22.33
2019-04-28T16:48:27.468Z,23.50
2019-04-28T16:53:32.296Z,19.57
2019-04-28T16:58:38.032Z,18.43
2019-04-28T17:03:42.795Z,29.00
2019-04-28T17:08:50.348Z,23.62
2019-04-28T17:13:55.052Z,26.75
2019-04-28T17:18:58.285Z,45.33
2019-04-28T17:24:04.756Z,19.14
2019-04-28T17:29:07.943Z,24.67
2019-04-28T17:34:15.500Z,28.56
2019-04-28T17:39:23.681Z,23.62
2019-04-28T17:44:28.550Z,38.75
2019-04-28T17:49:32.870Z,34.75
2019-04-28T17:54:37.029Z,26.50
2019-04-28T17:59:42.710Z,22.00
2019-04-28T18:04:49.236Z,25.37
2019-04-28T18:09:54.278Z,20.71
2019-04-28T18:14:58.348Z,25.00
2019-04-28T18:20:01.724Z,26.33
2019-04-28T18:25:08.878Z,25.75
2019-04-28T18:30:17.852Z,32.63
2019-04-28T18:35:26.876Z,32.25
2019-04-28T18:40:33.974Z,31.50
2019-04-28T18:45:40.524Z,29.75
2019-04-28T18:50:47.805Z,37.13
2019-04-28T18:55:55.212Z,35.75
2019-04-28T19:01:02.666Z,33.13
2019-04-28T19:06:11.847Z,29.50
2019-04-28T19:11:21.149Z,32.50
2019-04-28T19:16:30.170Z,34.13
2019-04-28T19:21:37.603Z,32.38
2019-04-28T19:26:40.813Z,35.00
2019-04-28T19:31:47.447Z,33.13
2019-04-28T19:36:51.588Z,40.00
2019-04-28T19:41:55.619Z,34.50
2019-04-28T19:47:01.465Z,31.00
2019-04-28T19:52:08.866Z,33.88
2019-04-28T19:57:18.789Z,32.56
2019-04-28T20:02:23.625Z,27.00
2019-04-28T20:07:27.537Z,27.25
2019-04-28T20:12:32.311Z,21.86
2019-04-28T20:17:36.271Z,26.33
2019-04-28T20:22:39.358Z,20.00
2019-04-28T20:27:45.720Z,21.87
2019-04-28T20:32:49.700Z,26.00
2019-04-28T20:37:55.252Z,21.00
2019-04-28T20:43:02.085Z,23.87
2019-04-28T20:48:07.084Z,22.00
2019-04-28T20:53:10.816Z,20.75
2019-04-28T20:58:14.633Z,25.00
2019-04-28T21:03:20.907Z,30.12
2019-04-28T21:08:25.430Z,26.50
2019-04-28T21:13:31.364Z,30.12
2019-04-28T21:18:36.212Z,26.00
2019-04-28T21:23:40.128Z,26.00
2019-04-28T21:28:44.239Z,30.00
2019-04-28T21:33:48.066Z,28.50
2019-04-28T21:38:52.002Z,24.50
2019-04-28T21:43:55.325Z,23.67
2019-04-28T21:49:00.885Z,24.75
2019-04-28T21:54:07.386Z,25.00
2019-04-28T21:59:11.411Z,25.00
2019-04-28T22:04:20.403Z,23.09
2019-04-28T22:09:26.994Z,22.75
2019-04-28T22:14:33.568Z,22.50
2019-04-28T22:19:37.427Z,17.50
2019-04-28T22:24:43.231Z,23.25
2019-04-28T22:29:46.987Z,20.00
2019-04-28T22:34:51.008Z,27.50
2019-04-28T22:39:55.179Z,21.50
2019-04-28T22:44:58.430Z,19.00
2019-04-28T22:50:07.165Z,20.00
2019-04-28T22:55:12.446Z,21.25
2019-04-28T23:00:19.783Z,21.00
2019-04-28T23:05:26.587Z,22.29
2019-04-28T23:10:32.506Z,19.00
2019-04-28T23:15:39.078Z,21.25
2019-04-28T23:20:45.610Z,23.00
2019-04-28T23:25:51.443Z,19.71
2019-04-28T23:30:58.883Z,17.87
2019-04-28T23:36:04.531Z,17.86
2019-04-28T23:41:10.110Z,18.14
2019-04-28T23:46:17.574Z,16.00
2019-04-28T23:51:24.033Z,15.00
2019-04-28T23:56:29.965Z,19.86
